createdAt,value
2023-05-01T00:03:21.914Z,11.01
2023-05-01T00:05:26.451Z,10.98
2023-05-01T00:07:31.886Z,10.98
2023-05-01T00:09:35.363Z,10.93
2023-05-01T00:11:39.101Z,10.91
2023-05-01T00:13:41.881Z,10.90
2023-05-01T00:15:48.007Z,10.87
2023-05-01T00:17:55.096Z,10.81
2023-05-01T00:19:58.226Z,10.75
2023-05-01T00:22:02.671Z,10.67
2023-05-01T00:24:06.241Z,10.63
2023-05-01T00:26:09.246Z,10.59
2023-05-01T00:28:15.621Z,10.56
2023-05-01T00:30:18.424Z,10.55
2023-05-01T00:32:21.717Z,10.52
2023-05-01T00:34:25.665Z,10.55
2023-05-01T00:36:28.447Z,10.58
2023-05-01T00:38:31.286Z,10.61
2023-05-01T00:40:51.548Z,10.58
2023-05-01T00:42:56.715Z,10.53
2023-05-01T00:45:00.699Z,10.55
2023-05-01T00:47:04.560Z,10.57
2023-05-01T00:49:08.743Z,10.60
2023-05-01T00:51:13.317Z,10.61
2023-05-01T00:53:20.997Z,10.62
2023-05-01T00:55:29.973Z,10.60
2023-05-01T00:57:34.228Z,10.58
2023-05-01T00:59:41.225Z,10.56
2023-05-01T01:01:45.456Z,10.54
2023-05-01T01:03:56.813Z,10.55
2023-05-01T01:06:23.148Z,10.56
2023-05-01T01:08:37.244Z,10.58
2023-05-01T01:10:51.310Z,10.59
2023-05-01T01:13:04.449Z,10.56
2023-05-01T01:15:34.862Z,10.53
2023-05-01T01:17:59.401Z,10.54
2023-05-01T01:20:34.572Z,10.54
2023-05-01T01:22:43.662Z,10.57
2023-05-01T01:25:09.657Z,10.59
2023-05-01T01:27:36.381Z,10.61
2023-05-01T01:29:57.957Z,10.63
2023-05-01T01:32:23.339Z,10.63
2023-05-01T01:34:33.051Z,10.60
2023-05-01T01:36:49.199Z,10.57
2023-05-01T01:39:06.696Z,10.57
2023-05-01T01:41:18.658Z,10.55
2023-05-01T01:43:23.163Z,10.55
2023-05-01T01:45:33.107Z,10.55
2023-05-01T01:47:39.190Z,10.54
2023-05-01T01:49:46.756Z,10.54
2023-05-01T01:51:52.550Z,10.51
2023-05-01T01:54:00.135Z,10.48
2023-05-01T01:56:09.129Z,10.45
2023-05-01T01:58:16.234Z,10.41
2023-05-01T02:00:20.724Z,10.35
2023-05-01T02:02:25.877Z,10.32
2023-05-01T02:04:31.826Z,10.28
2023-05-01T02:06:38.519Z,10.24
2023-05-01T02:08:44.282Z,10.22
2023-05-01T02:10:51.179Z,10.22
2023-05-01T02:13:03.533Z,10.22
2023-05-01T02:15:09.355Z,10.18
2023-05-01T02:17:15.617Z,10.18
2023-05-01T02:19:20.367Z,10.19
2023-05-01T02:21:24.989Z,10.20
2023-05-01T02:23:29.357Z,10.20
2023-05-01T02:25:39.545Z,10.22
2023-05-01T02:28:04.083Z,10.23
2023-05-01T02:30:10.501Z,10.23
2023-05-01T02:32:14.001Z,10.22
2023-05-01T02:34:19.606Z,10.22
2023-05-01T02:36:22.150Z,10.21
2023-05-01T02:38:25.668Z,10.21
2023-05-01T02:40:30.633Z,10.20
2023-05-01T02:42:39.184Z,10.19
2023-05-01T02:44:55.417Z,10.19
2023-05-01T02:47:09.248Z,10.19
2023-05-01T02:49:13.587Z,10.19
2023-05-01T02:51:18.429Z,10.19
2023-05-01T02:53:22.813Z,10.19
2023-05-01T02:55:28.151Z,10.17
2023-05-01T02:57:35.310Z,10.14
2023-05-01T02:59:38.161Z,10.12
2023-05-01T03:01:40.834Z,10.11
2023-05-01T03:03:44.814Z,10.09
2023-05-01T03:05:47.801Z,10.08
2023-05-01T03:07:51.443Z,10.06
2023-05-01T03:09:56.940Z,10.07
2023-05-01T03:12:03.238Z,10.05
2023-05-01T03:14:07.820Z,10.04
2023-05-01T03:16:10.929Z,10.03
2023-05-01T03:18:14.905Z,10.01
2023-05-01T03:20:18.367Z,10.00
2023-05-01T03:22:36.409Z,9.99
2023-05-01T03:24:43.185Z,9.99
2023-05-01T03:26:46.291Z,9.97
2023-05-01T03:28:48.971Z,9.94
2023-05-01T03:30:53.710Z,9.90
2023-05-01T03:32:57.929Z,9.89
2023-05-01T03:35:08.258Z,9.88
2023-05-01T03:37:15.300Z,9.84
2023-05-01T03:39:20.392Z,9.83
2023-05-01T03:41:42.547Z,9.82
2023-05-01T03:43:57.807Z,9.83
2023-05-01T03:46:09.568Z,9.85
2023-05-01T03:48:14.369Z,9.86
2023-05-01T03:50:18.630Z,9.87
2023-05-01T03:52:24.262Z,9.85
2023-05-01T03:54:29.667Z,9.74
2023-05-01T03:56:58.644Z,9.63
2023-05-01T03:59:01.655Z,9.63
2023-05-01T04:01:06.500Z,9.62
2023-05-01T04:03:10.772Z,9.60
2023-05-01T04:05:15.148Z,9.58
2023-05-01T04:07:23.562Z,9.57
2023-05-01T04:09:27.390Z,9.58
2023-05-01T04:11:30.190Z,9.58
2023-05-01T04:13:34.034Z,9.56
2023-05-01T04:15:38.989Z,9.55
2023-05-01T04:17:44.034Z,9.52
2023-05-01T04:19:47.963Z,9.50
2023-05-01T04:21:50.634Z,9.51
2023-05-01T04:23:53.572Z,9.54
2023-05-01T04:25:57.220Z,9.55
2023-05-01T04:28:00.735Z,9.54
2023-05-01T04:30:05.060Z,9.55
2023-05-01T04:32:08.200Z,9.57
2023-05-01T04:34:11.039Z,9.59
2023-05-01T04:36:17.938Z,9.61
2023-05-01T04:38:24.948Z,9.65
2023-05-01T04:40:32.218Z,9.66
2023-05-01T04:42:38.842Z,9.69
2023-05-01T04:44:47.360Z,9.69
2023-05-01T04:46:50.605Z,9.66
2023-05-01T04:48:57.023Z,9.64
2023-05-01T04:51:01.341Z,9.60
2023-05-01T04:53:08.586Z,9.55
2023-05-01T04:55:11.822Z,9.53
2023-05-01T04:57:21.389Z,9.54
2023-05-01T04:59:24.703Z,9.58
2023-05-01T05:01:29.978Z,9.59
2023-05-01T05:03:34.759Z,9.61
2023-05-01T05:05:39.825Z,9.66
2023-05-01T05:07:43.598Z,9.71
2023-05-01T05:10:13.322Z,9.77
2023-05-01T05:12:18.216Z,9.82
2023-05-01T05:14:21.730Z,9.87
2023-05-01T05:16:28.660Z,9.88
2023-05-01T05:18:36.664Z,9.90
2023-05-01T05:20:41.073Z,9.92
2023-05-01T05:22:46.668Z,9.95
2023-05-01T05:25:07.477Z,9.99
2023-05-01T05:27:13.362Z,10.04
2023-05-01T05:29:17.075Z,10.05
2023-05-01T05:31:24.737Z,10.07
2023-05-01T05:33:30.076Z,10.09
2023-05-01T05:35:42.453Z,10.14
2023-05-01T05:37:46.176Z,10.18
2023-05-01T05:39:49.356Z,10.22
2023-05-01T05:41:53.993Z,10.23
2023-05-01T05:43:57.633Z,10.24
2023-05-01T05:46:02.400Z,10.25
2023-05-01T05:48:06.375Z,10.25
2023-05-01T05:50:14.149Z,10.24
2023-05-01T05:52:20.488Z,10.22
2023-05-01T05:54:23.269Z,10.21
2023-05-01T05:56:28.401Z,10.19
2023-05-01T05:58:38.616Z,10.18
2023-05-01T06:00:43.899Z,10.17
2023-05-01T06:05:18.677Z,10.19
2023-05-01T06:07:24.368Z,10.23
2023-05-01T06:09:29.760Z,10.28
2023-05-01T06:11:34.452Z,10.33
2023-05-01T06:13:42.896Z,10.39
2023-05-01T06:15:48.702Z,10.46
2023-05-01T06:17:53.243Z,10.44
2023-05-01T06:20:27.141Z,10.43
2023-05-01T06:22:34.754Z,10.45
2023-05-01T06:24:54.081Z,10.49
2023-05-01T06:26:59.657Z,10.53
2023-05-01T06:29:27.698Z,10.57
2023-05-01T06:31:36.917Z,10.56
2023-05-01T06:33:51.690Z,10.58
2023-05-01T06:36:31.185Z,10.66
2023-05-01T06:38:34.715Z,10.70
2023-05-01T06:40:43.123Z,10.75
2023-05-01T06:45:08.424Z,10.83
2023-05-01T06:47:11.849Z,10.88
2023-05-01T06:49:16.895Z,10.93
2023-05-01T06:51:39.381Z,10.97
2023-05-01T06:53:55.734Z,11.02
2023-05-01T06:56:00.270Z,11.08
2023-05-01T06:58:12.711Z,11.13
2023-05-01T07:00:39.611Z,11.17
2023-05-01T07:02:52.927Z,11.21
2023-05-01T07:05:07.292Z,11.26
2023-05-01T07:07:26.264Z,11.29
2023-05-01T07:09:29.357Z,11.32
2023-05-01T07:12:02.508Z,11.36
2023-05-01T07:14:36.096Z,11.41
2023-05-01T07:16:44.210Z,11.44
2023-05-01T07:19:03.011Z,11.48
2023-05-01T07:21:10.364Z,11.54
2023-05-01T07:23:15.578Z,11.61
2023-05-01T07:25:22.005Z,11.67
2023-05-01T07:28:00.125Z,11.73
2023-05-01T07:30:06.165Z,11.82
2023-05-01T07:32:12.051Z,11.89
2023-05-01T07:34:19.672Z,11.94
2023-05-01T07:36:47.173Z,11.99
2023-05-01T07:38:52.139Z,12.04
2023-05-01T07:41:03.238Z,12.10
2023-05-01T07:43:12.389Z,12.15
2023-05-01T07:45:53.476Z,12.20
2023-05-01T07:50:52.418Z,12.24
2023-05-01T07:52:57.346Z,12.28
2023-05-01T07:55:04.393Z,12.31
2023-05-01T07:57:09.358Z,12.35
2023-05-01T07:59:21.122Z,12.41
2023-05-01T08:01:26.744Z,12.47
2023-05-01T08:03:36.834Z,12.51
2023-05-01T08:05:42.942Z,12.54
2023-05-01T08:08:01.043Z,12.58
2023-05-01T08:10:05.765Z,12.62
2023-05-01T08:12:19.503Z,12.68
2023-05-01T08:14:24.540Z,12.74
2023-05-01T08:16:32.108Z,12.79
2023-05-01T08:18:42.892Z,12.85
2023-05-01T08:20:48.573Z,12.91
2023-05-01T08:22:51.831Z,12.97
2023-05-01T08:25:01.495Z,13.02
2023-05-01T08:27:09.438Z,13.08
2023-05-01T08:29:13.197Z,13.14
2023-05-01T08:31:25.021Z,13.21
2023-05-01T08:33:28.334Z,13.27
2023-05-01T08:35:34.067Z,13.32
2023-05-01T08:37:42.096Z,13.39
2023-05-01T08:39:45.548Z,13.44
2023-05-01T08:41:48.801Z,13.51
2023-05-01T08:43:52.906Z,13.56
2023-05-01T08:45:58.769Z,13.61
2023-05-01T08:48:05.716Z,13.67
2023-05-01T08:50:14.002Z,13.71
2023-05-01T08:52:16.922Z,13.79
2023-05-01T08:54:26.130Z,13.84
2023-05-01T08:56:35.754Z,13.91
2023-05-01T08:58:45.810Z,13.97
2023-05-01T09:00:52.402Z,14.00
2023-05-01T09:03:05.742Z,14.06
2023-05-01T09:05:19.087Z,14.13
2023-05-01T09:07:31.593Z,14.19
2023-05-01T09:09:50.014Z,14.23
2023-05-01T09:11:58.162Z,14.26
2023-05-01T09:14:05.978Z,14.29
2023-05-01T09:16:13.732Z,14.31
2023-05-01T09:18:17.195Z,14.33
2023-05-01T09:20:24.969Z,14.38
2023-05-01T09:22:33.489Z,14.43
2023-05-01T09:24:37.357Z,14.49
2023-05-01T09:26:42.649Z,14.51
2023-05-01T09:29:16.785Z,14.56
2023-05-01T09:31:30.197Z,14.64
2023-05-01T09:33:34.844Z,14.70
2023-05-01T09:36:03.103Z,14.74
2023-05-01T09:38:11.778Z,14.78
2023-05-01T09:40:16.122Z,14.81
2023-05-01T09:42:24.741Z,14.85
2023-05-01T09:44:32.522Z,14.90
2023-05-01T09:46:44.571Z,14.93
2023-05-01T09:49:08.005Z,14.99
2023-05-01T09:51:32.140Z,15.06
2023-05-01T09:53:40.436Z,15.13
2023-05-01T09:55:44.728Z,15.18
2023-05-01T09:57:53.452Z,15.22
2023-05-01T10:00:04.498Z,15.24
2023-05-01T10:02:27.770Z,15.23
2023-05-01T10:04:33.308Z,15.24
2023-05-01T10:07:14.411Z,15.27
2023-05-01T10:09:32.918Z,15.30
2023-05-01T10:11:54.473Z,15.34
2023-05-01T10:14:07.867Z,15.38
2023-05-01T10:18:55.724Z,15.41
2023-05-01T10:21:03.512Z,15.43
2023-05-01T10:23:06.709Z,15.45
2023-05-01T10:25:14.686Z,15.47
2023-05-01T10:27:23.356Z,15.49
2023-05-01T10:29:27.878Z,15.52
2023-05-01T10:31:38.688Z,15.54
2023-05-01T10:33:49.155Z,15.54
2023-05-01T10:35:57.433Z,15.56
2023-05-01T10:38:12.380Z,15.59
2023-05-01T10:40:40.298Z,15.62
2023-05-01T10:43:26.648Z,15.67
2023-05-01T10:45:43.966Z,15.71
2023-05-01T10:47:49.958Z,15.71
2023-05-01T10:50:10.485Z,15.73
2023-05-01T10:52:14.755Z,15.76
2023-05-01T10:54:22.505Z,15.77
2023-05-01T10:56:26.374Z,15.78
2023-05-01T10:58:41.347Z,15.80
2023-05-01T11:01:38.459Z,15.80
2023-05-01T11:06:17.190Z,15.84
2023-05-01T11:08:33.805Z,15.83
2023-05-01T11:10:36.610Z,15.87
2023-05-01T11:13:22.626Z,15.89
2023-05-01T11:15:29.422Z,15.91
2023-05-01T11:18:05.600Z,15.93
2023-05-01T11:20:36.157Z,15.96
2023-05-01T11:22:48.500Z,15.95
2023-05-01T11:25:08.000Z,15.95
2023-05-01T11:27:15.749Z,15.95
2023-05-01T11:29:34.426Z,15.95
2023-05-01T11:31:53.081Z,15.94
2023-05-01T11:34:11.780Z,15.95
2023-05-01T11:36:20.445Z,15.94
2023-05-01T11:38:25.812Z,15.92
2023-05-01T11:40:38.268Z,15.90
2023-05-01T11:42:47.980Z,15.91
2023-05-01T11:45:13.501Z,15.92
2023-05-01T11:47:48.963Z,15.92
2023-05-01T11:49:56.120Z,15.92
2023-05-01T11:52:01.770Z,15.91
2023-05-01T11:54:23.805Z,15.90
2023-05-01T11:56:34.246Z,15.90
2023-05-01T11:58:38.542Z,15.89
2023-05-01T12:00:45.154Z,15.89
2023-05-01T12:03:12.936Z,15.89
2023-05-01T12:05:20.402Z,15.89
2023-05-01T12:07:40.567Z,15.87
2023-05-01T12:09:50.189Z,15.86
2023-05-01T12:11:55.424Z,15.85
2023-05-01T12:14:05.227Z,15.84
2023-05-01T12:16:11.712Z,15.83
2023-05-01T12:18:17.322Z,15.80
2023-05-01T12:20:39.110Z,15.77
2023-05-01T12:23:00.743Z,15.73
2023-05-01T12:25:04.529Z,15.72
2023-05-01T12:27:11.829Z,15.70
2023-05-01T12:29:14.603Z,15.67
2023-05-01T12:31:20.398Z,15.66
2023-05-01T12:33:28.947Z,15.60
2023-05-01T12:35:35.330Z,15.50
2023-05-01T12:37:51.498Z,15.45
2023-05-01T12:39:58.480Z,15.43
2023-05-01T12:42:14.696Z,15.38
2023-05-01T12:44:21.660Z,15.33
2023-05-01T12:46:25.279Z,15.27
2023-05-01T12:48:30.759Z,15.24
2023-05-01T12:50:42.243Z,15.22
2023-05-01T12:55:49.452Z,15.16
2023-05-01T12:57:58.049Z,15.07
2023-05-01T13:00:06.329Z,15.01
2023-05-01T13:02:16.978Z,14.95
2023-05-01T13:04:24.226Z,14.90
2023-05-01T13:06:39.074Z,14.81
2023-05-01T13:09:07.827Z,14.71
2023-05-01T13:11:17.919Z,14.68
2023-05-01T13:13:30.779Z,14.68
2023-05-01T13:15:35.528Z,14.70
2023-05-01T13:17:42.190Z,14.69
2023-05-01T13:20:03.623Z,14.67
2023-05-01T13:22:09.670Z,14.67
2023-05-01T13:24:16.549Z,14.62
2023-05-01T13:26:31.552Z,14.56
2023-05-01T13:28:36.847Z,14.51
2023-05-01T13:30:39.970Z,14.52
2023-05-01T13:32:52.390Z,14.52
2023-05-01T13:35:06.175Z,14.51
2023-05-01T13:37:13.693Z,14.49
2023-05-01T13:39:21.341Z,14.46
2023-05-01T13:41:27.165Z,14.42
2023-05-01T13:43:31.792Z,14.40
2023-05-01T13:45:38.333Z,14.39
2023-05-01T13:47:43.733Z,14.39
2023-05-01T13:49:59.649Z,14.39
2023-05-01T13:52:08.403Z,14.37
2023-05-01T13:54:14.171Z,14.30
2023-05-01T13:56:16.751Z,14.27
2023-05-01T13:58:26.035Z,14.26
2023-05-01T14:00:32.080Z,14.28
2023-05-01T14:02:42.744Z,14.26
2023-05-01T14:04:47.073Z,14.26
2023-05-01T14:06:52.404Z,14.29
2023-05-01T14:09:12.098Z,14.32
2023-05-01T14:11:18.345Z,14.31
2023-05-01T14:13:25.143Z,14.27
2023-05-01T14:15:29.946Z,14.22
2023-05-01T14:17:36.250Z,14.19
2023-05-01T14:19:41.629Z,14.11
2023-05-01T14:21:47.324Z,14.06
2023-05-01T14:23:53.718Z,14.05
2023-05-01T14:26:12.710Z,14.06
2023-05-01T14:28:23.797Z,14.05
2023-05-01T14:30:34.448Z,14.03
2023-05-01T14:32:44.919Z,14.03
2023-05-01T14:34:50.156Z,14.04
2023-05-01T14:37:00.772Z,14.04
2023-05-01T14:39:06.679Z,14.02
2023-05-01T14:41:17.015Z,13.96
2023-05-01T14:43:27.229Z,13.93
2023-05-01T14:45:32.546Z,13.90
2023-05-01T14:47:47.760Z,13.86
2023-05-01T14:49:56.334Z,13.89
2023-05-01T14:51:59.547Z,13.93
2023-05-01T14:54:05.037Z,13.98
2023-05-01T14:56:09.148Z,14.05
2023-05-01T14:58:16.303Z,14.08
2023-05-01T15:00:26.812Z,14.13
2023-05-01T15:02:31.947Z,14.16
2023-05-01T15:04:35.699Z,14.18
2023-05-01T15:06:41.940Z,14.18
2023-05-01T15:08:49.286Z,14.19
2023-05-01T15:11:06.554Z,14.20
2023-05-01T15:13:11.351Z,14.20
2023-05-01T15:15:14.928Z,14.19
2023-05-01T15:17:19.767Z,14.18
2023-05-01T15:19:22.558Z,14.14
2023-05-01T15:21:25.235Z,14.14
2023-05-01T15:23:28.764Z,14.14
2023-05-01T15:25:37.739Z,14.14
2023-05-01T15:27:40.812Z,14.16
2023-05-01T15:29:44.822Z,14.15
2023-05-01T15:31:53.889Z,14.09
2023-05-01T15:34:04.755Z,14.05
2023-05-01T15:36:13.387Z,14.05
2023-05-01T15:38:24.094Z,14.04
2023-05-01T15:40:29.859Z,14.02
2023-05-01T15:42:32.946Z,14.01
2023-05-01T15:44:37.138Z,13.98
2023-05-01T15:46:40.688Z,13.95
2023-05-01T15:48:43.347Z,13.97
2023-05-01T15:50:48.827Z,13.97
2023-05-01T15:52:52.847Z,13.99
2023-05-01T15:55:09.518Z,14.02
2023-05-01T15:57:18.536Z,14.06
2023-05-01T15:59:26.476Z,14.07
2023-05-01T16:01:32.591Z,14.06
2023-05-01T16:03:40.666Z,14.03
2023-05-01T16:05:47.157Z,14.02
2023-05-01T16:07:56.810Z,14.00
2023-05-01T16:10:01.185Z,13.97
2023-05-01T16:12:07.994Z,13.97
2023-05-01T16:14:15.788Z,13.97
2023-05-01T16:16:25.651Z,13.97
2023-05-01T16:18:31.498Z,13.97
2023-05-01T16:20:44.441Z,13.96
2023-05-01T16:22:47.702Z,13.94
2023-05-01T16:24:53.292Z,13.91
2023-05-01T16:27:05.758Z,13.86
2023-05-01T16:29:14.117Z,13.82
2023-05-01T16:31:28.147Z,13.79
2023-05-01T16:33:36.487Z,13.78
2023-05-01T16:35:44.075Z,13.77
2023-05-01T16:37:47.735Z,13.74
2023-05-01T16:39:52.912Z,13.71
2023-05-01T16:41:59.621Z,13.69
2023-05-01T16:44:06.918Z,13.65
2023-05-01T16:46:15.609Z,13.63
2023-05-01T16:48:26.496Z,13.64
2023-05-01T16:50:30.067Z,13.67
2023-05-01T16:52:53.465Z,13.70
2023-05-01T16:54:57.178Z,13.69
2023-05-01T16:57:04.414Z,13.68
2023-05-01T16:59:10.262Z,13.68
2023-05-01T17:01:14.739Z,13.66
2023-05-01T17:03:17.805Z,13.64
2023-05-01T17:05:27.508Z,13.64
2023-05-01T17:07:39.391Z,13.64
2023-05-01T17:09:43.714Z,13.65
2023-05-01T17:11:53.447Z,13.66
2023-05-01T17:14:07.276Z,13.66
2023-05-01T17:16:14.072Z,13.62
2023-05-01T17:18:16.994Z,13.61
2023-05-01T17:20:25.148Z,13.62
2023-05-01T17:22:32.070Z,13.62
2023-05-01T17:24:37.787Z,13.62
2023-05-01T17:28:25.992Z,13.57
2023-05-01T17:30:28.932Z,13.55
2023-05-01T17:32:37.037Z,13.55
2023-05-01T17:34:40.569Z,13.60
2023-05-01T17:36:43.386Z,13.64
2023-05-01T17:38:46.231Z,13.68
2023-05-01T17:41:03.503Z,13.71
2023-05-01T17:43:06.521Z,13.72
2023-05-01T17:45:10.398Z,13.75
2023-05-01T17:47:12.989Z,13.77
2023-05-01T17:49:16.249Z,13.81
2023-05-01T17:51:20.441Z,13.82
2023-05-01T17:53:23.541Z,13.84
2023-05-01T17:55:28.033Z,13.85
2023-05-01T17:57:30.949Z,13.87
2023-05-01T17:59:34.216Z,13.89
2023-05-01T18:01:39.498Z,13.90
2023-05-01T18:03:42.444Z,13.90
2023-05-01T18:05:45.102Z,13.88
2023-05-01T18:07:47.721Z,13.87
2023-05-01T18:09:50.395Z,13.86
2023-05-01T18:11:53.850Z,13.84
2023-05-01T18:13:56.639Z,13.82
2023-05-01T18:15:59.378Z,13.79
2023-05-01T18:18:02.377Z,13.74
2023-05-01T18:20:05.569Z,13.72
2023-05-01T18:22:08.678Z,13.70
2023-05-01T18:24:11.327Z,13.69
2023-05-01T18:26:14.094Z,13.69
2023-05-01T18:28:18.568Z,13.68
2023-05-01T18:32:46.250Z,13.67
2023-05-01T18:34:51.647Z,13.60
2023-05-01T18:36:54.743Z,13.57
2023-05-01T18:38:57.596Z,13.54
2023-05-01T18:41:00.267Z,13.52
2023-05-01T18:43:03.608Z,13.50
2023-05-01T18:45:07.175Z,13.48
2023-05-01T18:47:10.101Z,13.45
2023-05-01T18:49:12.852Z,13.37
2023-05-01T18:51:15.624Z,13.34
2023-05-01T18:53:19.293Z,13.32
2023-05-01T18:55:22.279Z,13.32
2023-05-01T18:57:25.376Z,13.31
2023-05-01T18:59:32.491Z,13.32
2023-05-01T19:01:36.219Z,13.35
2023-05-01T19:03:41.487Z,13.36
2023-05-01T19:05:46.421Z,13.37
2023-05-01T19:07:49.176Z,13.37
2023-05-01T19:09:54.772Z,13.38
2023-05-01T19:11:57.470Z,13.37
2023-05-01T19:14:00.102Z,13.37
2023-05-01T19:16:02.778Z,13.35
2023-05-01T19:18:07.305Z,13.33
2023-05-01T19:20:20.295Z,13.30
2023-05-01T19:22:23.159Z,13.27
2023-05-01T19:24:26.149Z,13.26
2023-05-01T19:26:30.813Z,13.23
2023-05-01T19:31:34.359Z,13.19
2023-05-01T19:33:38.018Z,13.15
2023-05-01T19:35:40.880Z,13.10
2023-05-01T19:37:43.580Z,13.08
2023-05-01T19:39:46.561Z,13.03
2023-05-01T19:41:49.287Z,12.98
2023-05-01T19:43:52.212Z,12.96
2023-05-01T19:45:54.827Z,12.95
2023-05-01T19:50:22.385Z,12.89
2023-05-01T19:52:26.410Z,12.83
2023-05-01T19:54:31.787Z,12.79
2023-05-01T19:56:34.681Z,12.75
2023-05-01T19:58:38.891Z,12.71
2023-05-01T20:00:42.320Z,12.67
2023-05-01T20:02:45.260Z,12.62
2023-05-01T20:04:47.935Z,12.59
2023-05-01T20:06:54.299Z,12.58
2023-05-01T20:08:57.134Z,12.55
2023-05-01T20:11:01.061Z,12.52
2023-05-01T20:13:11.517Z,12.49
2023-05-01T20:15:14.409Z,12.46
2023-05-01T20:17:19.942Z,12.44
2023-05-01T20:19:22.798Z,12.40
2023-05-01T20:21:26.725Z,12.36
2023-05-01T20:23:30.558Z,12.32
2023-05-01T20:25:34.954Z,12.28
2023-05-01T20:27:39.563Z,12.26
2023-05-01T20:29:42.182Z,12.26
2023-05-01T20:31:45.613Z,12.27
2023-05-01T20:33:48.795Z,12.26
2023-05-01T20:35:51.721Z,12.24
2023-05-01T20:37:57.124Z,12.24
2023-05-01T20:40:00.340Z,12.23
2023-05-01T20:42:07.056Z,12.24
2023-05-01T20:44:10.629Z,12.24
2023-05-01T20:46:13.777Z,12.21
2023-05-01T20:48:17.641Z,12.18
2023-05-01T20:50:21.375Z,12.15
2023-05-01T20:52:24.189Z,12.11
2023-05-01T20:54:28.817Z,12.05
2023-05-01T20:56:33.430Z,12.00
2023-05-01T20:58:36.710Z,11.95
2023-05-01T21:00:39.418Z,11.91
2023-05-01T21:02:42.438Z,11.88
2023-05-01T21:04:46.309Z,11.86
2023-05-01T21:06:49.644Z,11.86
2023-05-01T21:08:53.023Z,11.85
2023-05-01T21:10:56.351Z,11.83
2023-05-01T21:13:00.327Z,11.82
2023-05-01T21:15:04.159Z,11.81
2023-05-01T21:17:10.266Z,11.81
2023-05-01T21:19:16.155Z,11.81
2023-05-01T21:21:20.286Z,11.81
2023-05-01T21:23:27.982Z,11.80
2023-05-01T21:25:33.098Z,11.79
2023-05-01T21:27:42.879Z,11.78
2023-05-01T21:29:51.356Z,11.76
2023-05-01T21:31:57.102Z,11.73
2023-05-01T21:34:04.129Z,11.70
2023-05-01T21:36:08.172Z,11.66
2023-05-01T21:38:11.068Z,11.60
2023-05-01T21:40:14.514Z,11.55
2023-05-01T21:42:18.847Z,11.51
2023-05-01T21:44:29.652Z,11.48
2023-05-01T21:46:32.373Z,11.45
2023-05-01T21:48:35.202Z,11.42
2023-05-01T21:50:38.491Z,11.40
2023-05-01T21:52:47.209Z,11.38
2023-05-01T21:54:51.321Z,11.40
2023-05-01T21:56:59.164Z,11.43
2023-05-01T21:59:02.483Z,11.45
2023-05-01T22:01:07.005Z,11.47
2023-05-01T22:03:10.515Z,11.48
2023-05-01T22:05:15.368Z,11.48
2023-05-01T22:07:18.233Z,11.47
2023-05-01T22:09:23.716Z,11.44
2023-05-01T22:11:26.341Z,11.42
2023-05-01T22:13:33.874Z,11.39
2023-05-01T22:15:37.627Z,11.38
2023-05-01T22:17:44.092Z,11.36
2023-05-01T22:19:48.328Z,11.34
2023-05-01T22:21:53.751Z,11.31
2023-05-01T22:23:56.305Z,11.27
2023-05-01T22:26:01.284Z,11.26
2023-05-01T22:28:05.573Z,11.25
2023-05-01T22:30:12.838Z,11.24
2023-05-01T22:32:16.582Z,11.22
2023-05-01T22:34:20.531Z,11.20
2023-05-01T22:36:23.633Z,11.18
2023-05-01T22:38:26.259Z,11.15
2023-05-01T22:40:29.645Z,11.14
2023-05-01T22:42:35.172Z,11.15
2023-05-01T22:44:40.498Z,11.18
2023-05-01T22:46:44.678Z,11.18
2023-05-01T22:48:49.491Z,11.18
2023-05-01T22:50:52.407Z,11.17
2023-05-01T22:52:54.990Z,11.17
2023-05-01T22:54:59.710Z,11.16
2023-05-01T22:57:02.728Z,11.16
2023-05-01T22:59:05.355Z,11.16
2023-05-01T23:01:10.720Z,11.14
2023-05-01T23:03:16.931Z,11.14
2023-05-01T23:05:19.803Z,11.12
2023-05-01T23:07:22.305Z,11.10
2023-05-01T23:09:28.149Z,11.08
2023-05-01T23:11:33.205Z,11.05
2023-05-01T23:13:37.354Z,11.02
2023-05-01T23:15:46.355Z,10.99
2023-05-01T23:17:51.461Z,10.96
2023-05-01T23:19:58.357Z,10.94
2023-05-01T23:22:08.830Z,10.91
2023-05-01T23:24:16.417Z,10.89
2023-05-01T23:26:33.986Z,10.87
2023-05-01T23:28:43.942Z,10.85
2023-05-01T23:30:52.841Z,10.86
2023-05-01T23:32:58.141Z,10.87
2023-05-01T23:35:25.021Z,10.86
2023-05-01T23:37:27.701Z,10.82
2023-05-01T23:39:30.376Z,10.81
2023-05-01T23:41:33.250Z,10.79
2023-05-01T23:43:38.575Z,10.75
2023-05-01T23:45:41.314Z,10.73
2023-05-01T23:47:45.916Z,10.68
2023-05-01T23:49:50.787Z,10.69
2023-05-01T23:51:54.098Z,10.68
2023-05-01T23:53:56.682Z,10.66
2023-05-01T23:55:59.286Z,10.63
2023-05-01T23:58:02.326Z,10.60
